Time;durP1;ratioP1;P1;durP2;ratioP2;P2;SDS_P1;SDS_P2;PMS_P1;PMS_P2;Temp;Humidity;BMP_temperature;BMP_pressure;BME280_temperature;BME280_humidity;BME280_pressure;Samples;Min_cycle;Max_cycle;Signal;HPM_P1;HPM_P2
2024/01/03 00:00:18;;;;;;;10.43;3.42;;;11.80;99.90;;;;;;5071928;28;20028;-73
2024/01/03 00:02:47;;;;;;;14.07;1.13;;;11.80;99.90;;;;;;5072421;28;20077;-74
2024/01/03 00:05:14;;;;;;;5.35;1.83;;;11.90;99.90;;;;;;5073002;28;20044;-73
2024/01/03 00:07:41;;;;;;;2.85;0.88;;;11.90;99.90;;;;;;5073255;28;20020;-73
2024/01/03 00:10:28;;;;;;;8.60;1.67;;;11.90;99.90;;;;;;5073289;28;20032;-73
2024/01/03 00:12:54;;;;;;;18.00;2.20;;;12.00;99.90;;;;;;5059875;28;20037;-73
2024/01/03 00:15:35;;;;;;;11.02;1.75;;;12.00;99.90;;;;;;5073017;28;20028;-72
2024/01/03 00:18:06;;;;;;;23.05;3.08;;;12.00;99.90;;;;;;5053101;28;20125;-73
2024/01/03 00:20:35;;;;;;;16.38;1.55;;;12.10;99.90;;;;;;5066520;28;20044;-73
2024/01/03 00:23:13;;;;;;;7.10;2.30;;;12.10;99.90;;;;;;5073063;28;20556;-73
2024/01/03 00:25:39;;;;;;;9.55;1.88;;;12.00;99.90;;;;;;5070680;28;20028;-72
2024/01/03 00:28:05;;;;;;;12.82;1.33;;;12.00;99.90;;;;;;5072994;28;20047;-73
2024/01/03 00:30:31;;;;;;;19.45;4.25;;;12.00;99.90;;;;;;5072031;28;20044;-73
2024/01/03 00:32:57;;;;;;;5.75;1.55;;;12.00;99.90;;;;;;5071346;28;20059;-73
2024/01/03 00:35:22;;;;;;;14.93;2.10;;;12.10;99.90;;;;;;5073012;28;20422;-74
2024/01/03 00:37:48;;;;;;;7.03;1.05;;;12.00;99.90;;;;;;5073037;28;20515;-73
2024/01/03 00:40:54;;;;;;;6.75;2.60;;;12.00;99.90;;;;;;5071494;28;20121;-73
2024/01/03 00:43:20;;;;;;;10.32;2.15;;;12.00;99.90;;;;;;5072608;28;20082;-74
2024/01/03 00:45:48;;;;;;;11.73;2.47;;;12.00;99.90;;;;;;5072979;28;20020;-74
2024/01/03 00:48:16;;;;;;;13.68;2.55;;;12.00;99.90;;;;;;5072723;28;20047;-73
2024/01/03 00:50:42;;;;;;;8.85;1.50;;;12.10;99.90;;;;;;5072758;28;20060;-73
2024/01/03 00:53:09;;;;;;;16.40;3.63;;;12.00;99.90;;;;;;5072727;28;20350;-73
2024/01/03 00:55:36;;;;;;;2.05;0.98;;;12.00;99.90;;;;;;5072489;28;20034;-74
2024/01/03 00:58:02;;;;;;;15.95;3.00;;;12.00;99.90;;;;;;5072872;28;20025;-72
2024/01/03 01:00:28;;;;;;;8.48;1.77;;;12.00;99.90;;;;;;5071478;28;20029;-71
2024/01/03 01:02:54;;;;;;;5.50;2.17;;;11.90;99.90;;;;;;5071495;28;20031;-73
2024/01/03 01:05:20;;;;;;;19.33;3.78;;;11.90;99.90;;;;;;5071013;28;20388;-73
2024/01/03 01:07:46;;;;;;;8.25;1.58;;;11.80;99.90;;;;;;5066529;28;20036;-74
2024/01/03 01:10:15;;;;;;;10.05;1.85;;;11.80;99.90;;;;;;5065296;28;20029;-73
2024/01/03 01:12:41;;;;;;;12.45;3.05;;;11.80;99.90;;;;;;5071351;28;20032;-73
2024/01/03 01:15:07;;;;;;;3.03;0.68;;;11.90;99.90;;;;;;5071274;28;20504;-71
2024/01/03 01:17:33;;;;;;;15.43;2.95;;;11.90;99.90;;;;;;5072092;28;20082;-72
2024/01/03 01:19:59;;;;;;;10.43;2.17;;;11.90;99.90;;;;;;5072696;28;20393;-72
2024/01/03 01:22:26;;;;;;;18.98;2.20;;;11.80;99.90;;;;;;5071009;28;20505;-74
2024/01/03 01:24:52;;;;;;;33.38;2.78;;;11.90;99.90;;;;;;5071128;28;20090;-72
2024/01/03 01:27:18;;;;;;;23.70;4.22;;;11.80;99.90;;;;;;5072536;28;20037;-72
2024/01/03 01:29:44;;;;;;;28.13;3.15;;;11.80;99.90;;;;;;5072493;28;20028;-74
2024/01/03 01:32:09;;;;;;;21.05;3.25;;;11.70;99.90;;;;;;5072039;28;20031;-73
2024/01/03 01:34:35;;;;;;;14.23;2.17;;;11.80;99.90;;;;;;5071120;28;20020;-72
2024/01/03 01:37:02;;;;;;;4.13;1.85;;;11.80;99.90;;;;;;5071740;28;20063;-72
2024/01/03 01:39:27;;;;;;;10.57;2.28;;;11.70;99.90;;;;;;5055745;28;20131;-71
2024/01/03 01:41:53;;;;;;;12.43;2.13;;;11.70;99.90;;;;;;5075863;28;20488;-72
2024/01/03 01:44:19;;;;;;;8.20;1.90;;;11.70;99.90;;;;;;5074307;28;20123;-71
2024/01/03 01:46:46;;;;;;;18.60;3.10;;;11.70;99.90;;;;;;5058132;28;20481;-71
2024/01/03 01:49:15;;;;;;;0.75;0.60;;;11.70;99.90;;;;;;5075924;28;20491;-72
2024/01/03 01:51:41;;;;;;;14.90;2.25;;;11.60;99.90;;;;;;5074217;28;20032;-73
2024/01/03 01:54:08;;;;;;;12.63;3.33;;;11.60;99.90;;;;;;5075352;28;20127;-72
2024/01/03 01:56:35;;;;;;;30.30;1.77;;;11.70;99.90;;;;;;5074317;28;20040;-71
2024/01/03 01:59:01;;;;;;;7.97;1.92;;;11.70;99.90;;;;;;5074013;28;20024;-71
2024/01/03 02:01:28;;;;;;;16.00;2.03;;;11.70;99.90;;;;;;5073971;28;20028;-71
2024/01/03 02:03:55;;;;;;;28.58;1.95;;;11.60;99.90;;;;;;5074156;28;20063;-71
2024/01/03 02:06:22;;;;;;;22.17;3.03;;;11.60;99.90;;;;;;5066770;28;20060;-71
2024/01/03 02:08:48;;;;;;;10.30;0.70;;;11.60;99.90;;;;;;5060069;28;20082;-71
2024/01/03 02:11:14;;;;;;;12.80;2.88;;;11.60;99.90;;;;;;5075565;28;20035;-71
2024/01/03 02:13:44;;;;;;;6.28;1.80;;;11.60;99.90;;;;;;5073660;28;20443;-71
2024/01/03 02:16:10;;;;;;;0.85;0.77;;;11.60;99.90;;;;;;5075311;28;20388;-71
2024/01/03 02:18:37;;;;;;;7.82;4.78;;;11.70;99.90;;;;;;5075166;28;20024;-71
2024/01/03 02:21:15;;;;;;;4.75;1.05;;;11.70;99.90;;;;;;5075250;28;20032;-72
2024/01/03 02:23:41;;;;;;;8.70;3.50;;;11.70;99.90;;;;;;5073573;28;20487;-73
2024/01/03 02:26:08;;;;;;;3.95;1.10;;;11.60;99.90;;;;;;5075379;28;20396;-72
2024/01/03 02:28:35;;;;;;;2.50;1.08;;;11.60;99.90;;;;;;5056991;28;20029;-71
2024/01/03 02:31:01;;;;;;;9.45;2.15;;;11.70;99.90;;;;;;5075064;28;20039;-72
2024/01/03 02:33:27;;;;;;;6.15;1.33;;;11.70;99.90;;;;;;5074932;28;20024;-72
2024/01/03 02:35:53;;;;;;;6.65;3.10;;;11.70;99.90;;;;;;5100053;22;20095;-74
2024/01/03 02:38:21;;;;;;;12.10;1.95;;;11.60;99.90;;;;;;5075034;28;20024;-74
2024/01/03 02:40:47;;;;;;;7.32;2.13;;;11.60;99.90;;;;;;5074921;28;20059;-73
2024/01/03 02:43:13;;;;;;;7.43;1.55;;;11.60;99.90;;;;;;5073389;28;20443;-73
2024/01/03 02:45:39;;;;;;;3.75;1.27;;;11.60;99.90;;;;;;5128202;22;20048;-73
2024/01/03 02:48:05;;;;;;;10.85;1.50;;;11.60;99.90;;;;;;5094134;28;20036;-72
2024/01/03 02:50:31;;;;;;;24.50;2.97;;;11.50;99.90;;;;;;5094698;28;20020;-73
2024/01/03 02:52:57;;;;;;;5.10;1.38;;;11.50;99.90;;;;;;5076819;28;20534;-73
2024/01/03 02:55:23;;;;;;;16.67;3.60;;;11.50;99.90;;;;;;5076962;28;20060;-72
2024/01/03 02:57:49;;;;;;;23.30;2.08;;;11.40;99.90;;;;;;5094405;28;20024;-72
2024/01/03 03:00:15;;;;;;;16.95;3.17;;;11.40;99.90;;;;;;5076811;28;20046;-74
2024/01/03 03:02:40;;;;;;;10.27;2.72;;;11.40;99.90;;;;;;5094777;28;20073;-72
2024/01/03 03:05:07;;;;;;;3.30;1.00;;;11.40;99.90;;;;;;5094652;28;20077;-73
2024/01/03 03:07:33;;;;;;;14.80;2.80;;;11.40;99.90;;;;;;5094546;28;20020;-73
2024/01/03 03:09:59;;;;;;;29.00;4.80;;;11.30;99.90;;;;;;5094538;28;20028;-73
2024/01/03 03:12:24;;;;;;;3.88;1.65;;;11.20;99.90;;;;;;5094377;28;20518;-75
2024/01/03 03:14:50;;;;;;;21.75;4.28;;;11.20;99.90;;;;;;5094233;28;20042;-73
2024/01/03 03:17:16;;;;;;;10.73;2.30;;;11.20;99.90;;;;;;5094317;28;20020;-72
2024/01/03 03:19:43;;;;;;;15.13;2.78;;;11.30;99.90;;;;;;5094169;28;20392;-74
2024/01/03 03:22:09;;;;;;;11.88;1.08;;;11.30;99.90;;;;;;5094554;28;20446;-73
2024/01/03 03:24:35;;;;;;;5.82;1.52;;;11.30;99.90;;;;;;5089370;28;20017;-73
2024/01/03 03:27:01;;;;;;;9.82;2.10;;;11.20;99.90;;;;;;5066319;28;20039;-73
2024/01/03 03:29:26;;;;;;;2.80;0.88;;;11.20;99.90;;;;;;5093777;28;20024;-76
2024/01/03 03:31:52;;;;;;;2.65;0.40;;;11.20;99.90;;;;;;5081356;28;20056;-73
2024/01/03 03:34:18;;;;;;;1.70;1.60;;;11.20;99.90;;;;;;5055735;28;20024;-73
2024/01/03 03:36:44;;;;;;;5.72;1.35;;;11.30;99.90;;;;;;5073387;28;20028;-74
2024/01/03 03:39:11;;;;;;;4.32;1.13;;;11.30;99.90;;;;;;5073309;28;20036;-73
2024/01/03 03:41:37;;;;;;;11.30;2.08;;;11.20;99.90;;;;;;5087567;28;20477;-74
2024/01/03 03:44:03;;;;;;;4.28;0.90;;;11.20;99.90;;;;;;5072969;28;20060;-73
2024/01/03 03:46:30;;;;;;;6.85;1.67;;;11.20;99.90;;;;;;5055608;28;20032;-71
2024/01/03 03:48:56;;;;;;;0.95;0.30;;;11.10;99.90;;;;;;5073248;28;20466;-74
2024/01/03 03:51:22;;;;;;;2.65;0.88;;;11.10;99.90;;;;;;5073474;28;20039;-74
2024/01/03 03:53:48;;;;;;;1.83;0.68;;;11.10;99.90;;;;;;5055344;28;20074;-72
2024/01/03 03:56:29;;;;;;;6.45;1.10;;;11.00;99.90;;;;;;5071971;28;20434;-73
2024/01/03 03:58:55;;;;;;;3.22;0.25;;;11.10;99.90;;;;;;5073125;28;20016;-73
2024/01/03 04:01:21;;;;;;;5.22;0.93;;;11.10;99.90;;;;;;5055272;28;20125;-74
2024/01/03 04:03:47;;;;;;;2.47;0.40;;;11.10;99.90;;;;;;5073221;28;20499;-74
2024/01/03 04:06:15;;;;;;;5.07;0.52;;;11.00;99.90;;;;;;5072982;28;20028;-73
2024/01/03 04:08:43;;;;;;;3.45;0.68;;;11.10;99.90;;;;;;5073282;28;20066;-72
2024/01/03 04:11:10;;;;;;;0.77;0.50;;;11.00;99.90;;;;;;5072761;28;20469;-75
2024/01/03 04:13:38;;;;;;;1.98;0.70;;;11.10;99.90;;;;;;5072890;28;20129;-73
2024/01/03 04:16:08;;;;;;;12.95;1.80;;;11.10;99.90;;;;;;5072852;28;20484;-73
2024/01/03 04:18:36;;;;;;;10.60;1.15;;;11.00;99.90;;;;;;5073157;28;20020;-72
2024/01/03 04:21:05;;;;;;;1.45;0.55;;;10.90;99.90;;;;;;5072745;28;20060;-74
2024/01/03 04:23:31;;;;;;;6.20;0.90;;;10.90;99.90;;;;;;5055058;28;20078;-73
2024/01/03 04:25:57;;;;;;;5.35;0.73;;;10.90;99.90;;;;;;5072520;28;20500;-74
2024/01/03 04:28:23;;;;;;;5.10;2.00;;;10.90;99.90;;;;;;5073078;28;20044;-74
2024/01/03 04:30:49;;;;;;;4.00;1.05;;;10.90;99.90;;;;;;5080608;22;20052;-73
2024/01/03 04:33:15;;;;;;;4.30;0.77;;;10.90;99.90;;;;;;5072687;28;20051;-73
2024/01/03 04:35:41;;;;;;;2.20;0.80;;;10.90;99.90;;;;;;5072862;28;20358;-72
2024/01/03 04:38:07;;;;;;;5.35;0.80;;;10.90;99.90;;;;;;5072566;28;20027;-73
2024/01/03 04:40:33;;;;;;;0.10;0.10;;;10.80;99.90;;;;;;5072593;28;20400;-74
2024/01/03 04:42:59;;;;;;;3.00;0.52;;;10.90;99.90;;;;;;5072660;28;20025;-73
2024/01/03 04:45:25;;;;;;;1.92;1.48;;;11.00;99.90;;;;;;5072755;28;20043;-72
2024/01/03 04:47:51;;;;;;;5.10;1.08;;;11.00;99.90;;;;;;5073004;28;20025;-72
2024/01/03 04:50:17;;;;;;;0.68;0.38;;;10.90;99.90;;;;;;5070977;28;20043;-73
2024/01/03 04:52:44;;;;;;;1.85;1.02;;;10.80;99.90;;;;;;5072613;28;20024;-73
2024/01/03 04:55:10;;;;;;;2.33;0.70;;;10.80;99.90;;;;;;5072181;28;20089;-73
2024/01/03 04:57:38;;;;;;;0.73;0.10;;;10.90;99.90;;;;;;5073006;28;20520;-74
2024/01/03 05:00:04;;;;;;;4.40;0.63;;;10.90;99.90;;;;;;5072431;28;20044;-75
2024/01/03 05:02:30;;;;;;;6.43;1.45;;;10.90;99.90;;;;;;5072696;28;20028;-73
2024/01/03 05:04:56;;;;;;;1.08;0.30;;;10.90;99.90;;;;;;5072488;28;20028;-73
2024/01/03 05:07:23;;;;;;;17.13;1.13;;;10.90;99.90;;;;;;5072237;28;20453;-75
2024/01/03 05:09:49;;;;;;;15.13;0.82;;;10.90;99.90;;;;;;5055114;28;20533;-73
2024/01/03 05:12:15;;;;;;;21.92;0.80;;;10.80;99.90;;;;;;5073636;28;20048;-72
2024/01/03 05:14:41;;;;;;;11.10;1.80;;;10.80;99.90;;;;;;5084452;22;20405;-73
2024/01/03 05:17:07;;;;;;;0.80;0.50;;;10.80;99.90;;;;;;5076299;28;20024;-73
2024/01/03 05:19:33;;;;;;;7.35;1.58;;;10.80;99.90;;;;;;5076540;28;20033;-73
2024/01/03 05:21:58;;;;;;;3.92;1.85;;;10.70;99.90;;;;;;5058418;28;20033;-74
2024/01/03 05:24:24;;;;;;;2.38;0.47;;;10.70;99.90;;;;;;5076950;28;20119;-72
2024/01/03 05:26:50;;;;;;;2.63;0.13;;;10.70;99.90;;;;;;5076512;28;20025;-72
2024/01/03 05:29:16;;;;;;;0.20;0.20;;;10.80;99.90;;;;;;5076412;28;20115;-72
2024/01/03 05:31:42;;;;;;;1.55;0.43;;;10.80;99.90;;;;;;5076404;28;20084;-73
2024/01/03 05:34:10;;;;;;;4.22;1.48;;;10.80;99.90;;;;;;5076094;28;20028;-74
2024/01/03 05:36:36;;;;;;;0.00;0.00;;;10.80;99.90;;;;;;5076009;28;20028;-72
2024/01/03 05:39:02;;;;;;;0.00;0.00;;;10.90;99.90;;;;;;5075959;28;20461;-73
2024/01/03 05:41:28;;;;;;;0.00;0.00;;;10.90;99.90;;;;;;5058421;28;20024;-73
2024/01/03 05:43:54;;;;;;;2.08;0.68;;;10.90;99.90;;;;;;5075996;28;20086;-74
2024/01/03 05:46:20;;;;;;;3.53;0.30;;;10.70;99.90;;;;;;5075846;28;20032;-73
2024/01/03 05:48:46;;;;;;;5.18;0.57;;;10.70;99.90;;;;;;5058401;28;20013;-73
2024/01/03 05:51:12;;;;;;;0.98;0.95;;;10.60;99.90;;;;;;5075802;28;20483;-75
2024/01/03 05:53:38;;;;;;;0.00;0.00;;;10.50;99.90;;;;;;5075957;28;20028;-75
2024/01/03 05:56:05;;;;;;;1.45;0.50;;;10.30;99.90;;;;;;5075967;28;20116;-72
2024/01/03 05:58:30;;;;;;;0.10;0.10;;;10.20;99.90;;;;;;5057736;28;20040;-73
2024/01/03 06:00:56;;;;;;;0.70;0.63;;;10.10;99.90;;;;;;5070701;28;20478;-73
2024/01/03 06:03:22;;;;;;;4.40;0.20;;;9.90;99.90;;;;;;5043752;28;20082;-74
2024/01/03 06:05:48;;;;;;;0.32;0.20;;;9.80;99.90;;;;;;5080334;22;20135;-73
2024/01/03 06:08:14;;;;;;;0.10;0.10;;;9.80;99.90;;;;;;5075512;28;20039;-72
2024/01/03 06:10:40;;;;;;;0.20;0.20;;;9.80;99.90;;;;;;5075537;28;20028;-73
2024/01/03 06:13:05;;;;;;;1.20;0.60;;;9.80;99.90;;;;;;5075314;28;20048;-74
2024/01/03 06:15:31;;;;;;;0.85;0.40;;;9.80;99.90;;;;;;5075323;28;20028;-72
2024/01/03 06:17:57;;;;;;;1.60;0.30;;;9.80;99.90;;;;;;5075228;28;20039;-73
2024/01/03 06:20:23;;;;;;;2.13;1.08;;;9.80;99.90;;;;;;5075034;28;20040;-72
2024/01/03 06:22:49;;;;;;;0.45;0.13;;;9.80;99.90;;;;;;5074599;28;20504;-73
2024/01/03 06:25:14;;;;;;;0.00;0.00;;;10.00;99.90;;;;;;5098761;22;20402;-73
2024/01/03 06:27:40;;;;;;;0.47;0.30;;;10.10;99.90;;;;;;5017358;28;20072;-72
2024/01/03 06:30:07;;;;;;;0.52;0.10;;;10.10;99.90;;;;;;5035306;28;20037;-74
2024/01/03 06:32:32;;;;;;;2.42;0.43;;;10.00;99.90;;;;;;5035235;28;20493;-74
2024/01/03 06:34:58;;;;;;;1.00;0.35;;;10.00;99.90;;;;;;5063683;22;20113;-74
2024/01/03 06:37:24;;;;;;;0.85;0.43;;;10.00;99.90;;;;;;5073744;28;20081;-74
2024/01/03 06:39:50;;;;;;;3.13;0.30;;;10.00;99.90;;;;;;5074886;28;20093;-73
2024/01/03 06:42:16;;;;;;;0.43;0.30;;;10.00;99.90;;;;;;5074917;28;20024;-72
2024/01/03 06:44:41;;;;;;;0.00;0.00;;;10.00;99.90;;;;;;5074796;28;20029;-72
2024/01/03 06:47:07;;;;;;;0.20;0.20;;;10.10;99.90;;;;;;5090669;28;20533;-73
2024/01/03 06:49:33;;;;;;;3.30;0.20;;;10.10;99.90;;;;;;5073331;28;20028;-73
2024/01/03 06:51:59;;;;;;;0.55;0.22;;;10.20;99.90;;;;;;5073570;28;20036;-72
2024/01/03 06:54:25;;;;;;;1.80;0.70;;;10.20;99.90;;;;;;5074587;28;20086;-74
2024/01/03 06:56:51;;;;;;;0.10;0.10;;;10.20;99.90;;;;;;5074659;28;20012;-72
2024/01/03 06:59:17;;;;;;;0.55;0.50;;;10.30;99.90;;;;;;5074601;28;20032;-74
2024/01/03 07:01:42;;;;;;;5.80;1.27;;;10.20;99.90;;;;;;5074305;28;20108;-72
2024/01/03 07:04:08;;;;;;;4.75;0.70;;;10.30;99.90;;;;;;5073959;28;20504;-74
2024/01/03 07:06:35;;;;;;;2.42;1.45;;;10.20;99.90;;;;;;5074559;28;20457;-73
2024/01/03 07:09:00;;;;;;;1.70;0.30;;;10.20;99.90;;;;;;5074180;28;20028;-74
2024/01/03 07:11:26;;;;;;;12.02;1.60;;;10.30;99.90;;;;;;5074731;28;20040;-73
2024/01/03 07:13:52;;;;;;;7.35;0.28;;;10.20;99.90;;;;;;5074106;28;20020;-74
2024/01/03 07:16:18;;;;;;;12.65;1.17;;;10.20;99.90;;;;;;5074467;28;20039;-73
2024/01/03 07:18:44;;;;;;;5.57;1.25;;;10.20;99.90;;;;;;5072513;28;20534;-74
2024/01/03 07:21:10;;;;;;;0.55;0.20;;;10.20;99.90;;;;;;5074310;28;20025;-73
2024/01/03 07:23:36;;;;;;;10.70;1.10;;;10.10;99.90;;;;;;5073998;28;20462;-73
2024/01/03 07:26:02;;;;;;;1.17;0.63;;;10.20;99.90;;;;;;5073912;28;20477;-73
2024/01/03 07:28:27;;;;;;;4.88;1.02;;;10.20;99.90;;;;;;5074190;28;20039;-72
2024/01/03 07:30:53;;;;;;;8.75;0.80;;;10.20;99.90;;;;;;5073931;28;20490;-74
2024/01/03 07:33:19;;;;;;;9.48;1.77;;;10.20;99.90;;;;;;5073439;28;20029;-73
2024/01/03 07:35:45;;;;;;;15.07;1.75;;;10.20;99.90;;;;;;5073226;28;20043;-73
2024/01/03 07:38:11;;;;;;;19.73;2.25;;;10.30;99.90;;;;;;5073804;28;20118;-73
2024/01/03 07:40:37;;;;;;;1.45;1.25;;;10.30;99.90;;;;;;5072401;28;20047;-72
2024/01/03 07:43:03;;;;;;;0.38;0.30;;;10.40;99.90;;;;;;5073567;28;20028;-74
2024/01/03 07:45:29;;;;;;;5.03;0.80;;;10.40;99.90;;;;;;5073521;28;20024;-73
2024/01/03 07:47:55;;;;;;;0.10;0.10;;;10.40;99.90;;;;;;5073346;28;20059;-73
2024/01/03 07:50:20;;;;;;;2.85;1.17;;;10.40;99.90;;;;;;5072912;28;20021;-73
2024/01/03 07:52:46;;;;;;;0.25;0.25;;;10.40;99.90;;;;;;5072192;28;20052;-73
2024/01/03 07:55:12;;;;;;;0.05;0.05;;;10.50;99.90;;;;;;5073151;28;20032;-74
2024/01/03 07:57:38;;;;;;;15.02;2.08;;;10.50;99.90;;;;;;5062868;28;20017;-75
2024/01/03 08:00:04;;;;;;;5.32;1.77;;;10.50;99.90;;;;;;5054999;28;20041;-74
2024/01/03 08:02:31;;;;;;;4.60;0.70;;;10.50;99.90;;;;;;5073150;28;20048;-73
2024/01/03 08:04:56;;;;;;;17.42;1.17;;;10.60;99.90;;;;;;5073472;28;20073;-74
2024/01/03 08:07:22;;;;;;;3.95;0.98;;;10.50;99.90;;;;;;5073337;28;20024;-73
2024/01/03 08:09:50;;;;;;;2.10;0.65;;;10.50;99.90;;;;;;5061594;28;20017;-72
2024/01/03 08:12:16;;;;;;;0.28;0.28;;;10.50;99.90;;;;;;5071513;28;20032;-72
2024/01/03 08:14:42;;;;;;;9.05;3.90;;;10.60;99.90;;;;;;5073096;28;20017;-74
2024/01/03 08:17:08;;;;;;;1.70;0.70;;;10.50;99.90;;;;;;5072942;28;20203;-73
2024/01/03 08:19:34;;;;;;;11.75;2.17;;;10.60;99.90;;;;;;5073363;28;20033;-72
2024/01/03 08:22:00;;;;;;;9.15;3.60;;;10.50;99.90;;;;;;5073023;28;20051;-75
2024/01/03 08:24:26;;;;;;;19.35;2.50;;;10.50;99.90;;;;;;5066630;28;20025;-73
2024/01/03 08:26:52;;;;;;;9.68;1.70;;;10.50;99.90;;;;;;5065660;28;20028;-74
2024/01/03 08:29:18;;;;;;;2.63;1.02;;;10.50;99.90;;;;;;5073103;28;20032;-74
2024/01/03 08:31:48;;;;;;;9.55;1.73;;;10.40;99.90;;;;;;5072896;28;20038;-73
2024/01/03 08:34:14;;;;;;;16.08;2.25;;;10.50;99.90;;;;;;5072528;28;20063;-74
2024/01/03 08:36:42;;;;;;;8.95;1.02;;;10.50;99.90;;;;;;5073037;28;20017;-75
2024/01/03 08:39:08;;;;;;;0.20;0.20;;;10.50;99.90;;;;;;5072871;28;20123;-73
2024/01/03 08:41:34;;;;;;;9.55;1.27;;;10.60;99.90;;;;;;5072931;28;20055;-74
2024/01/03 08:44:05;;;;;;;14.55;1.38;;;10.60;99.90;;;;;;5071466;28;20497;-73
2024/01/03 08:46:43;;;;;;;13.80;3.00;;;10.70;99.90;;;;;;5071782;28;20039;-73
2024/01/03 08:49:09;;;;;;;0.52;0.52;;;10.70;99.90;;;;;;5073194;28;20119;-73
2024/01/03 08:51:35;;;;;;;8.75;1.00;;;10.80;99.90;;;;;;5072818;28;20078;-73
2024/01/03 08:54:01;;;;;;;16.60;2.60;;;10.80;99.90;;;;;;5072761;28;20028;-75
2024/01/03 08:56:28;;;;;;;8.13;1.55;;;10.80;99.90;;;;;;5072920;28;20104;-75
2024/01/03 08:58:54;;;;;;;19.30;5.63;;;10.80;99.90;;;;;;5066848;28;20113;-74
2024/01/03 09:01:22;;;;;;;0.43;0.43;;;10.80;99.90;;;;;;5064489;28;20055;-72
2024/01/03 09:03:49;;;;;;;8.98;3.05;;;10.80;99.90;;;;;;5072742;28;20047;-74
2024/01/03 09:06:19;;;;;;;9.60;2.45;;;10.80;99.90;;;;;;5072763;28;20052;-74
2024/01/03 09:08:46;;;;;;;3.45;0.75;;;10.80;99.90;;;;;;5072705;28;20025;-73
2024/01/03 09:11:13;;;;;;;3.20;0.40;;;10.90;99.90;;;;;;5072658;28;20023;-74
2024/01/03 09:13:39;;;;;;;7.05;1.63;;;10.90;99.90;;;;;;5072451;28;20111;-74
2024/01/03 09:16:10;;;;;;;9.75;2.17;;;10.90;99.90;;;;;;5072383;28;20078;-74
2024/01/03 09:18:37;;;;;;;21.67;1.85;;;11.00;99.90;;;;;;5072814;28;20084;-73
2024/01/03 09:21:04;;;;;;;5.28;0.68;;;11.10;99.90;;;;;;5072622;28;20048;-74
2024/01/03 09:23:30;;;;;;;21.02;3.33;;;11.10;99.90;;;;;;5072760;28;20500;-74
2024/01/03 09:25:57;;;;;;;1.90;1.08;;;11.10;99.90;;;;;;5072231;28;20048;-72
2024/01/03 09:28:25;;;;;;;7.50;1.50;;;11.10;99.90;;;;;;5072465;28;20113;-73
2024/01/03 09:30:51;;;;;;;1.83;0.90;;;11.10;99.90;;;;;;5072464;28;20025;-75
2024/01/03 09:33:18;;;;;;;6.10;1.00;;;11.10;99.90;;;;;;5071254;28;20047;-75
2024/01/03 09:35:44;;;;;;;19.42;3.70;;;11.30;99.90;;;;;;5070666;28;20041;-74
2024/01/03 09:38:10;;;;;;;3.47;1.38;;;11.20;99.90;;;;;;5071143;28;20529;-73
2024/01/03 09:40:36;;;;;;;9.50;1.77;;;11.20;99.90;;;;;;5068536;28;20528;-73
2024/01/03 09:43:02;;;;;;;1.52;0.70;;;11.30;99.90;;;;;;5072083;28;20100;-73
2024/01/03 09:45:29;;;;;;;3.40;0.73;;;11.60;99.90;;;;;;5072219;28;20036;-74
2024/01/03 09:47:54;;;;;;;2.20;1.02;;;11.80;99.90;;;;;;5072243;28;20044;-75
2024/01/03 09:50:21;;;;;;;7.13;1.33;;;12.00;99.90;;;;;;5072109;28;20017;-73
2024/01/03 09:52:52;;;;;;;4.07;2.10;;;11.90;99.90;;;;;;5060594;28;20377;-72
2024/01/03 09:55:18;;;;;;;5.07;1.30;;;11.60;99.90;;;;;;5069523;28;20020;-73
2024/01/03 09:57:45;;;;;;;1.98;1.20;;;11.60;99.90;;;;;;5072596;28;20025;-73
2024/01/03 10:00:11;;;;;;;0.63;0.60;;;11.60;99.90;;;;;;5077829;28;20033;-74
2024/01/03 10:02:37;;;;;;;3.33;0.98;;;11.60;99.90;;;;;;5078070;28;20020;-73
2024/01/03 10:05:06;;;;;;;7.88;1.45;;;11.70;99.90;;;;;;5078203;28;20078;-73
2024/01/03 10:07:36;;;;;;;7.85;1.83;;;11.50;99.90;;;;;;5076194;28;20059;-73
2024/01/03 10:10:05;;;;;;;7.53;0.77;;;11.40;99.90;;;;;;5077519;28;20086;-73
2024/01/03 10:12:34;;;;;;;17.63;0.88;;;11.50;99.90;;;;;;5064813;28;20012;-74
2024/01/03 10:15:15;;;;;;;4.60;1.55;;;11.40;99.90;;;;;;5060876;28;20102;-72
2024/01/03 10:17:45;;;;;;;35.45;3.92;;;11.30;99.90;;;;;;5065285;28;20020;-71
2024/01/03 10:20:30;;;;;;;9.60;2.47;;;11.30;99.90;;;;;;5078596;28;20106;-71
2024/01/03 10:23:14;;;;;;;3.15;1.65;;;11.20;99.90;;;;;;5066448;28;20032;-73
2024/01/03 10:25:41;;;;;;;7.53;1.90;;;11.30;99.90;;;;;;5078165;28;20360;-72
2024/01/03 10:28:09;;;;;;;4.22;0.85;;;11.30;99.90;;;;;;5077052;28;20027;-72
2024/01/03 10:30:35;;;;;;;5.80;1.90;;;11.30;99.90;;;;;;5077608;28;20028;-72
2024/01/03 10:33:06;;;;;;;6.38;1.75;;;11.20;99.90;;;;;;5077041;28;20020;-74
2024/01/03 10:35:41;;;;;;;14.65;2.58;;;11.10;99.90;;;;;;5078262;28;20044;-72
2024/01/03 10:38:07;;;;;;;7.70;0.93;;;11.00;99.90;;;;;;5081406;28;20017;-72
2024/01/03 10:40:34;;;;;;;4.35;1.17;;;10.90;99.90;;;;;;5097838;28;20054;-72
2024/01/03 10:43:01;;;;;;;1.00;0.70;;;10.90;99.90;;;;;;5081458;28;20029;-72
2024/01/03 10:45:27;;;;;;;0.43;0.25;;;10.90;99.90;;;;;;5080595;28;20036;-73
2024/01/03 10:47:53;;;;;;;0.22;0.22;;;11.00;99.90;;;;;;5078145;28;20107;-73
2024/01/03 10:50:20;;;;;;;1.08;0.45;;;11.00;99.90;;;;;;5077468;28;20028;-71
2024/01/03 10:52:46;;;;;;;0.20;0.20;;;11.00;99.90;;;;;;5077624;28;20021;-71
2024/01/03 10:55:24;;;;;;;0.30;0.22;;;11.00;99.90;;;;;;5118700;22;20053;-73
2024/01/03 10:58:06;;;;;;;2.00;0.45;;;11.20;99.90;;;;;;5074756;28;20458;-72
2024/01/03 11:00:47;;;;;;;1.17;1.08;;;11.30;99.90;;;;;;5074726;28;20107;-73
2024/01/03 11:03:23;;;;;;;3.42;0.80;;;11.20;99.90;;;;;;5074635;28;20016;-71
2024/01/03 11:06:32;;;;;;;8.50;1.65;;;11.20;99.90;;;;;;5061278;28;20032;-72
2024/01/03 11:09:02;;;;;;;1.88;1.58;;;11.30;99.90;;;;;;5048858;28;20048;-74
2024/01/03 11:11:35;;;;;;;0.52;0.50;;;11.20;99.90;;;;;;5054692;28;20528;-81
2024/01/03 11:14:46;;;;;;;0.35;0.25;;;11.10;99.90;;;;;;5365701;22;20022;-71
2024/01/03 11:17:13;;;;;;;0.05;0.05;;;10.90;99.90;;;;;;5053999;28;20029;-71
2024/01/03 11:19:38;;;;;;;7.38;1.73;;;10.70;99.90;;;;;;5054111;28;20531;-71
2024/01/03 11:22:05;;;;;;;0.55;0.38;;;10.50;99.90;;;;;;5053712;28;20394;-72
2024/01/03 11:24:31;;;;;;;1.23;0.93;;;10.50;99.90;;;;;;5035961;28;20021;-72
2024/01/03 11:27:04;;;;;;;0.32;0.32;;;10.60;99.90;;;;;;5036095;28;20484;-72
2024/01/03 11:29:43;;;;;;;0.00;0.00;;;10.50;99.90;;;;;;5053697;28;20021;-74
2024/01/03 11:32:14;;;;;;;0.00;0.00;;;10.40;99.90;;;;;;5053838;28;20033;-73
2024/01/03 11:34:44;;;;;;;5.22;0.93;;;10.40;99.90;;;;;;5040130;28;20048;-71
2024/01/03 11:37:18;;;;;;;0.20;0.20;;;10.60;99.90;;;;;;5035797;28;20033;-71
2024/01/03 11:39:46;;;;;;;1.65;0.45;;;10.60;99.90;;;;;;5039730;28;20102;-73
2024/01/03 11:42:34;;;;;;;9.07;2.17;;;10.90;99.90;;;;;;5053457;28;20021;-73
2024/01/03 11:45:04;;;;;;;0.30;0.30;;;10.90;99.90;;;;;;5053373;28;20033;-72
2024/01/03 11:47:32;;;;;;;7.22;2.33;;;10.90;99.90;;;;;;5035613;28;20028;-73
2024/01/03 11:49:59;;;;;;;2.10;1.10;;;10.90;99.90;;;;;;5053324;28;20039;-71
2024/01/03 11:52:25;;;;;;;13.27;3.25;;;10.90;99.90;;;;;;5053310;28;20021;-71
2024/01/03 11:54:52;;;;;;;6.72;1.17;;;10.90;99.90;;;;;;5052899;28;20021;-71
2024/01/03 11:57:21;;;;;;;3.00;0.22;;;11.00;99.90;;;;;;5035479;28;20021;-71
2024/01/03 11:59:59;;;;;;;5.68;0.40;;;10.90;99.90;;;;;;5052877;28;20029;-71
2024/01/03 12:02:26;;;;;;;0.63;0.57;;;10.80;99.90;;;;;;5022692;28;20082;-73
2024/01/03 12:04:59;;;;;;;11.20;0.98;;;10.80;99.90;;;;;;5053031;28;20029;-71
2024/01/03 12:07:27;;;;;;;0.88;0.47;;;10.90;99.90;;;;;;5053074;28;20020;-71
2024/01/03 12:09:54;;;;;;;10.00;1.80;;;11.00;99.90;;;;;;5052760;28;20025;-73
2024/01/03 12:12:20;;;;;;;6.10;1.33;;;11.20;99.90;;;;;;5052820;28;20028;-73
2024/01/03 12:14:55;;;;;;;9.48;0.93;;;11.50;99.90;;;;;;5052696;28;20070;-73
2024/01/03 12:17:29;;;;;;;9.88;2.17;;;11.70;99.90;;;;;;5052800;28;20021;-73
2024/01/03 12:20:13;;;;;;;3.45;1.70;;;11.60;99.90;;;;;;5052760;28;20033;-73
2024/01/03 12:22:39;;;;;;;1.77;0.25;;;11.30;99.90;;;;;;5034465;28;20029;-73
2024/01/03 12:25:05;;;;;;;1.60;0.95;;;11.30;99.90;;;;;;5052739;28;20025;-73
2024/01/03 12:27:33;;;;;;;13.85;1.88;;;11.30;99.90;;;;;;5052623;28;20020;-73
2024/01/03 12:30:18;;;;;;;7.95;1.17;;;11.30;99.90;;;;;;5052749;28;20104;-74
2024/01/03 12:32:46;;;;;;;0.55;0.52;;;11.40;99.90;;;;;;5052524;28;20055;-73
2024/01/03 12:35:12;;;;;;;17.08;2.83;;;11.40;99.90;;;;;;5034744;28;20028;-73
2024/01/03 12:37:47;;;;;;;10.88;2.67;;;11.40;99.90;;;;;;5052302;28;20021;-73
2024/01/03 12:40:16;;;;;;;8.40;0.80;;;11.40;99.90;;;;;;5052432;28;20090;-73
2024/01/03 12:42:45;;;;;;;4.93;1.55;;;11.50;99.90;;;;;;5052617;28;20120;-73
2024/01/03 12:45:11;;;;;;;8.82;2.30;;;11.50;99.90;;;;;;5052314;28;20033;-73
2024/01/03 12:47:38;;;;;;;2.15;1.15;;;11.50;99.90;;;;;;5034614;28;20028;-73